This is the latest recevied weather packets stored in our database for station/object SQ5SUI-3. If no packets are shown the sender has not sent any weather packets the latest 10 day(s).
| Time | Temp. | Humidity | Pressure | Rain* | Wind** | Luminosity | Snow |
|---|---|---|---|---|---|---|---|
| 1777957259 | 15.56° C | 53% | 1015.5 hPa | 0 mm | - | - | - |
| 1777955459 | 14.44° C | 53% | 1015.7 hPa | 0 mm | - | - | - |
| 1777953659 | 15.56° C | 44% | 1015.6 hPa | 0 mm | - | - | - |
| 1777951860 | 14.44° C | 47% | 1015.7 hPa | 0 mm | - | - | - |
| 1777950059 | 11.67° C | 66% | 1015.6 hPa | 0 mm | - | - | - |
| 1777948259 | 12.78° C | 59% | 1015.7 hPa | 0 mm | - | - | - |
| 1777946458 | 12.22° C | 63% | 1015.7 hPa | 0 mm | - | - | - |
| 1777944660 | 12.22° C | 61% | 1015.6 hPa | 0 mm | - | - | - |
| 1777942859 | 15° C | 52% | 1015.6 hPa | 0 mm | - | - | - |
| 1777941059 | 15.56° C | 50% | 1015.5 hPa | 0 mm | - | - | - |
| 1777939260 | 15° C | 52% | 1015.4 hPa | 0 mm | - | - | - |
| 1777937459 | 14.44° C | 55% | 1015.6 hPa | 0 mm | - | - | - |
| 1777935659 | 14.44° C | 53% | 1015.7 hPa | 0 mm | - | - | - |
| 1777933858 | 17.22° C | 43% | 1015.5 hPa | 0 mm | - | - | - |
| 1777932058 | 15.56° C | 50% | 1015.5 hPa | 0 mm | - | - | - |
| 1777930260 | 15° C | 52% | 1015.6 hPa | 0 mm | - | - | - |
| 1777928460 | 15° C | 54% | 1015.6 hPa | 0 mm | - | - | - |
| 1777926659 | 15° C | 52% | 1015.5 hPa | 0 mm | - | - | - |
| 1777924860 | 15.56° C | 50% | 1015.7 hPa | 0 mm | - | - | - |
| 1777923060 | 15° C | 52% | 1015.5 hPa | 0 mm | - | - | - |
| 1777921259 | 16.11° C | 46% | 1016.2 hPa | 0 mm | - | - | - |
| 1777919458 | 16.67° C | 48% | 1017.2 hPa | 0 mm | - | - | - |
| 1777917659 | 19.44° C | 38% | 1018.4 hPa | 0 mm | - | - | - |
| 1777915860 | 24.44° C | 21% | 1019.1 hPa | 0 mm | - | - | - |
| 1777914059 | 27.22° C | 11% | 1019.3 hPa | 0 mm | - | - | - |
* Rain latest hour (hover to see other rain measurements)
** Current wind speed in m/s (hover to see current wind gust speed)